Terminal Aerodrome Forecast
Issued by NWS Quad Cities IA IL

Home | Current Version | Previous Version | Text Only | Print | Product List | Glossary On
Versions: 1 2 3 4 5 6 7 8 9 10 11 12 13 14 15 16 17 18 19 20 21 22
000
FTUS43 KDVN 252200 AAA
TAFMLI
TAF AMD
KMLI 252248Z 2523/2618 03013KT P6SM BKN040
     FM260200 34004KT P6SM SCT250
     FM261500 18007KT P6SM SCT080 BKN180=

USA.gov is the U.S. government's official web portal to all federal, state and local government web resources and services.